Time,TemperatureF,DewpointF,PressureIn,WindDirection,WindDirectionDegrees,WindSpeedMPH,WindSpeedGustMPH,Humidity,HourlyPrecipIn,Conditions,Clouds,dailyrainin,SoftwareType,DateUTC
2013-10-22 00:00:00,33.6,28.4,30.04,SSW,212,0.0,0.0,81,0.00,,OVC018,0.00,VWS V14.01,2013-10-22 05:00:00,
2013-10-22 00:03:00,33.5,28.3,30.04,SSW,211,0.0,0.0,81,0.00,,CLR,0.00,VWS V14.01,2013-10-22 05:03:00,
2013-10-22 00:08:00,33.4,28.2,30.05,SSW,211,0.0,0.0,81,0.00,,CLR,0.00,VWS V14.01,2013-10-22 05:08:00,
2013-10-22 00:10:00,33.4,28.2,30.05,SSW,211,0.0,0.0,81,0.00,,OVC018,0.00,VWS V14.01,2013-10-22 05:10:00,
2013-10-22 00:13:00,33.3,28.1,30.05,SSW,211,0.0,0.0,81,0.00,,CLR,0.00,VWS V14.01,2013-10-22 05:13:00,
2013-10-22 00:18:00,33.2,28.0,30.05,SSW,211,0.0,0.0,81,0.00,,CLR,0.00,VWS V14.01,2013-10-22 05:18:00,
2013-10-22 00:20:00,34.0,29.1,30.05,NNE,29,0.0,0.0,82,0.00,,CLR,0.00,VWS V14.01,2013-10-22 05:20:00,
2013-10-22 00:23:00,33.2,28.0,30.05,SSW,211,0.0,0.0,81,0.00,,CLR,0.00,VWS V14.01,2013-10-22 05:23:00,
2013-10-22 00:28:00,33.1,27.6,30.05,SSW,211,0.0,0.0,80,0.00,,CLR,0.00,VWS V14.01,2013-10-22 05:28:00,
2013-10-22 00:30:00,33.4,28.5,30.05,NNE,29,0.0,0.0,82,0.00,,CLR,0.00,VWS V14.01,2013-10-22 05:30:00,
2013-10-22 00:33:00,33.1,27.9,30.05,SSW,211,0.0,0.0,81,0.00,,CLR,0.00,VWS V14.01,2013-10-22 05:33:00,
2013-10-22 00:38:00,33.1,27.9,30.05,SSW,211,0.0,0.0,81,0.00,,CLR,0.00,VWS V14.01,2013-10-22 05:38:00,
2013-10-22 00:40:00,33.1,27.9,30.05,SSW,211,0.0,0.0,81,0.00,,OVC018,0.00,VWS V14.01,2013-10-22 05:40:00,
2013-10-22 00:43:00,32.9,27.7,30.05,SSW,211,0.0,0.0,81,0.00,,CLR,0.00,VWS V14.01,2013-10-22 05:43:00,
2013-10-22 00:48:00,32.8,27.6,30.05,SSW,211,0.0,0.0,81,0.00,,CLR,0.00,VWS V14.01,2013-10-22 05:48:00,
2013-10-22 00:50:00,32.8,27.6,30.05,SSW,211,0.0,0.0,81,0.00,,OVC018,0.00,VWS V14.01,2013-10-22 05:50:00,
2013-10-22 00:53:00,32.8,27.6,30.05,SSW,211,0.0,0.0,81,0.00,,CLR,0.00,VWS V14.01,2013-10-22 05:53:00,
2013-10-22 00:58:00,32.8,27.9,30.05,SSW,211,0.0,0.0,82,0.00,,CLR,0.00,VWS V14.01,2013-10-22 05:58:00,
2013-10-22 01:00:00,32.8,27.9,30.05,SSW,211,0.0,0.0,82,0.00,,OVC018,0.00,VWS V14.01,2013-10-22 06:00:00,
2013-10-22 01:03:00,32.7,27.5,30.05,SSW,211,0.0,0.0,81,0.00,,CLR,0.00,VWS V14.01,2013-10-22 06:03:00,
2013-10-22 01:09:00,32.5,27.3,30.05,SSW,211,0.0,0.0,81,0.00,,CLR,0.00,VWS V14.01,2013-10-22 06:09:00,
2013-10-22 01:10:00,32.6,27.4,30.05,SSW,211,0.0,0.0,81,0.00,,OVC018,0.00,VWS V14.01,2013-10-22 06:10:00,
2013-10-22 01:14:00,32.4,27.5,30.05,SSW,211,0.0,0.0,82,0.00,,CLR,0.00,VWS V14.01,2013-10-22 06:14:00,
2013-10-22 01:19:00,32.4,27.5,30.05,SSW,211,0.0,0.0,82,0.00,,CLR,0.00,VWS V14.01,2013-10-22 06:19:00,
2013-10-22 01:20:00,32.4,27.5,30.05,SSW,211,0.0,0.0,82,0.00,,OVC018,0.00,VWS V14.01,2013-10-22 06:20:00,
2013-10-22 01:24:00,32.2,27.6,30.05,SSW,211,0.0,0.0,83,0.00,,CLR,0.00,VWS V14.01,2013-10-22 06:24:00,
2013-10-22 01:29:00,32.2,27.6,30.05,SSW,211,0.0,0.0,83,0.00,,CLR,0.00,VWS V14.01,2013-10-22 06:29:00,
2013-10-22 01:30:00,32.2,27.6,30.05,SSW,211,0.0,0.0,83,0.00,,OVC018,0.00,VWS V14.01,2013-10-22 06:30:00,
2013-10-22 01:34:00,32.1,27.5,30.05,SSW,211,0.0,0.0,83,0.00,,CLR,0.00,VWS V14.01,2013-10-22 06:34:00,
2013-10-22 01:39:00,32.0,27.4,30.05,SSW,211,0.0,0.0,83,0.00,,CLR,0.00,VWS V14.01,2013-10-22 06:39:00,
2013-10-22 01:40:00,32.0,27.4,30.05,SSW,211,0.0,0.0,83,0.00,,OVC018,0.00,VWS V14.01,2013-10-22 06:40:00,
2013-10-22 01:44:00,32.1,27.8,30.06,SSW,211,0.0,0.0,84,0.00,,CLR,0.00,VWS V14.01,2013-10-22 06:44:00,
2013-10-22 01:49:00,32.2,27.9,30.06,SSW,211,0.0,0.0,84,0.00,,CLR,0.00,VWS V14.01,2013-10-22 06:49:00,
2013-10-22 01:50:00,32.8,27.6,30.05,SSW,211,0.0,0.0,81,0.00,,CLR,0.00,VWS V14.01,2013-10-22 06:50:00,
2013-10-22 01:54:00,32.2,27.9,30.06,SSW,211,0.0,0.0,84,0.00,,CLR,0.00,VWS V14.01,2013-10-22 06:54:00,
2013-10-22 01:59:00,32.1,27.8,30.06,SSW,211,0.0,0.0,84,0.00,,CLR,0.00,VWS V14.01,2013-10-22 06:59:00,
2013-10-22 02:00:00,32.1,27.8,30.06,SSW,211,0.0,0.0,84,0.00,,OVC018,0.00,VWS V14.01,2013-10-22 07:00:00,
2013-10-22 02:04:00,32.0,28.0,30.06,SSW,211,0.0,0.0,85,0.00,,CLR,0.00,VWS V14.01,2013-10-22 07:04:00,
2013-10-22 02:09:00,32.1,28.1,30.06,SSW,211,0.0,0.0,85,0.00,,CLR,0.00,VWS V14.01,2013-10-22 07:09:00,
2013-10-22 02:10:00,32.1,28.1,30.06,SSW,211,0.0,0.0,85,0.00,,OVC018,0.00,VWS V14.01,2013-10-22 07:10:00,
2013-10-22 02:14:00,32.1,28.4,30.06,SSW,211,0.0,0.0,86,0.00,,CLR,0.00,VWS V14.01,2013-10-22 07:14:00,
2013-10-22 02:19:00,32.0,28.3,30.06,SSW,211,0.0,0.0,86,0.00,,CLR,0.00,VWS V14.01,2013-10-22 07:19:00,
2013-10-22 02:20:00,32.0,28.3,30.06,SSW,210,0.0,0.0,86,0.00,,OVC018,0.00,VWS V14.01,2013-10-22 07:20:00,
2013-10-22 02:24:00,31.9,28.2,30.06,SSW,211,0.0,0.0,86,0.00,,CLR,0.00,VWS V14.01,2013-10-22 07:24:00,
2013-10-22 02:29:00,31.8,28.1,30.05,SSW,211,0.0,0.0,86,0.00,,CLR,0.00,VWS V14.01,2013-10-22 07:29:00,
2013-10-22 02:30:00,32.2,27.6,30.05,SSW,211,0.0,0.0,83,0.00,,CLR,0.00,VWS V14.01,2013-10-22 07:30:00,
2013-10-22 02:35:00,31.8,28.4,30.05,SSW,211,0.0,0.0,87,0.00,,CLR,0.00,VWS V14.01,2013-10-22 07:35:00,
2013-10-22 02:40:00,31.8,28.4,30.06,SSW,211,0.0,0.0,87,0.00,,CLR,0.00,VWS V14.01,2013-10-22 07:40:00,
2013-10-22 02:45:00,31.8,28.4,30.05,SSW,211,0.0,0.0,87,0.00,,CLR,0.00,VWS V14.01,2013-10-22 07:45:00,
2013-10-22 02:50:00,31.9,28.8,30.05,SSW,211,0.0,0.0,88,0.00,,CLR,0.00,VWS V14.01,2013-10-22 07:50:00,
2013-10-22 02:55:00,31.9,28.8,30.05,SSW,211,0.0,0.0,88,0.00,,CLR,0.00,VWS V14.01,2013-10-22 07:55:00,
2013-10-22 03:00:00,31.9,28.8,30.05,SSW,210,0.0,0.0,88,0.00,,CLR,0.00,VWS V14.01,2013-10-22 08:00:00,
2013-10-22 03:05:00,31.8,28.7,30.05,SSW,211,0.0,0.0,88,0.00,,CLR,0.00,VWS V14.01,2013-10-22 08:05:00,
2013-10-22 03:10:00,31.8,28.7,30.05,SSW,211,0.0,0.0,88,0.00,,CLR,0.00,VWS V14.01,2013-10-22 08:10:00,
2013-10-22 03:15:00,31.9,28.8,30.05,SSW,211,0.0,0.0,88,0.00,,CLR,0.00,VWS V14.01,2013-10-22 08:15:00,
2013-10-22 03:20:00,31.8,28.7,30.05,SSW,211,0.0,0.0,88,0.00,,CLR,0.00,VWS V14.01,2013-10-22 08:20:00,
2013-10-22 03:25:00,31.8,28.7,30.05,SSW,211,0.0,0.0,88,0.00,,CLR,0.00,VWS V14.01,2013-10-22 08:25:00,
2013-10-22 03:30:00,31.9,29.0,30.05,SSW,211,0.0,0.0,89,0.00,,CLR,0.00,VWS V14.01,2013-10-22 08:30:00,
2013-10-22 03:35:00,31.9,29.0,30.05,SSW,211,0.0,0.0,89,0.00,,CLR,0.00,VWS V14.01,2013-10-22 08:35:00,
2013-10-22 03:40:00,31.8,28.7,30.05,SSW,211,0.0,0.0,88,0.00,,CLR,0.00,VWS V14.01,2013-10-22 08:40:00,
2013-10-22 03:45:00,31.8,28.9,30.05,SSW,211,0.0,0.0,89,0.00,,CLR,0.00,VWS V14.01,2013-10-22 08:45:00,
2013-10-22 03:50:00,31.8,28.9,30.05,SSW,211,0.0,0.0,89,0.00,,CLR,0.00,VWS V14.01,2013-10-22 08:50:00,
2013-10-22 03:55:00,31.7,28.8,30.05,SSW,211,0.0,0.0,89,0.00,,CLR,0.00,VWS V14.01,2013-10-22 08:55:00,
2013-10-22 04:00:00,31.7,28.8,30.05,SSW,211,0.0,0.0,89,0.00,,OVC018,0.00,VWS V14.01,2013-10-22 09:00:00,
2013-10-22 04:01:00,31.7,28.8,30.04,SSW,211,0.0,0.0,89,0.00,,CLR,0.00,VWS V14.01,2013-10-22 09:01:00,
2013-10-22 04:06:00,31.7,28.8,30.04,SSW,211,0.0,0.0,89,0.00,,CLR,0.00,VWS V14.01,2013-10-22 09:06:00,
2013-10-22 04:10:00,31.8,28.7,30.05,SSW,211,0.0,0.0,88,0.00,,CLR,0.00,VWS V14.01,2013-10-22 09:10:00,
2013-10-22 04:11:00,31.8,29.2,30.05,SSW,211,0.0,0.0,90,0.00,,CLR,0.00,VWS V14.01,2013-10-22 09:11:00,
2013-10-22 04:16:00,32.1,29.5,30.05,SSW,210,0.0,0.0,90,0.00,,CLR,0.00,VWS V14.01,2013-10-22 09:16:00,
2013-10-22 04:20:00,32.1,29.2,30.04,SSW,211,0.0,0.0,89,0.00,,OVC018,0.00,VWS V14.01,2013-10-22 09:20:00,
2013-10-22 04:21:00,32.0,29.1,30.04,SSW,211,0.0,0.0,89,0.00,,CLR,0.00,VWS V14.01,2013-10-22 09:21:00,
2013-10-22 04:26:00,31.8,28.9,30.05,SSW,211,0.0,0.0,89,0.00,,CLR,0.00,VWS V14.01,2013-10-22 09:26:00,
2013-10-22 04:30:00,31.8,28.9,30.04,SSW,211,0.0,0.0,89,0.00,,OVC018,0.00,VWS V14.01,2013-10-22 09:30:00,
2013-10-22 04:31:00,31.8,28.9,30.05,SSW,210,0.0,0.0,89,0.00,,CLR,0.00,VWS V14.01,2013-10-22 09:31:00,
2013-10-22 04:36:00,31.8,28.9,30.05,SSW,211,0.0,0.0,89,0.00,,CLR,0.00,VWS V14.01,2013-10-22 09:36:00,
2013-10-22 04:40:00,31.8,28.9,30.05,SSW,211,0.0,0.0,89,0.00,,OVC018,0.00,VWS V14.01,2013-10-22 09:40:00,
2013-10-22 04:41:00,31.9,29.0,30.05,SSW,211,0.0,0.0,89,0.00,,CLR,0.00,VWS V14.01,2013-10-22 09:41:00,
2013-10-22 04:46:00,32.0,29.1,30.05,SSW,211,0.0,0.0,89,0.00,,CLR,0.00,VWS V14.01,2013-10-22 09:46:00,
2013-10-22 04:50:00,32.1,29.2,30.04,SSW,210,0.0,0.0,89,0.00,,OVC018,0.00,VWS V14.01,2013-10-22 09:50:00,
2013-10-22 04:51:00,32.3,29.4,30.05,SSW,211,0.0,0.0,89,0.00,,CLR,0.00,VWS V14.01,2013-10-22 09:51:00,
2013-10-22 04:56:00,32.7,29.5,30.04,SSW,211,0.0,0.0,88,0.00,,CLR,0.00,VWS V14.01,2013-10-22 09:56:00,
2013-10-22 05:00:00,32.8,29.6,30.04,SSW,211,0.0,0.0,88,0.00,,OVC018,0.00,VWS V14.01,2013-10-22 10:00:00,
2013-10-22 05:01:00,33.1,29.9,30.04,SSW,211,0.0,0.0,88,0.00,,CLR,0.00,VWS V14.01,2013-10-22 10:01:00,
2013-10-22 05:06:00,33.4,30.0,30.04,SSW,211,0.0,0.0,87,0.00,,CLR,0.00,VWS V14.01,2013-10-22 10:06:00,
2013-10-22 05:10:00,33.4,30.0,30.04,SSW,211,0.0,0.0,87,0.00,,OVC018,0.00,VWS V14.01,2013-10-22 10:10:00,
2013-10-22 05:11:00,33.5,30.0,30.04,SSW,211,0.0,0.0,87,0.00,,CLR,0.00,VWS V14.01,2013-10-22 10:11:00,
2013-10-22 05:17:00,33.6,29.9,30.04,SSW,211,0.0,0.0,86,0.00,,CLR,0.00,VWS V14.01,2013-10-22 10:17:00,
2013-10-22 05:20:00,33.6,29.9,30.04,SSW,211,0.0,0.0,86,0.00,,OVC018,0.00,VWS V14.01,2013-10-22 10:20:00,
2013-10-22 05:22:00,33.6,29.9,30.05,SSW,211,0.0,0.0,86,0.00,,CLR,0.00,VWS V14.01,2013-10-22 10:22:00,
2013-10-22 05:27:00,33.6,29.9,30.05,SSW,211,0.0,0.0,86,0.00,,CLR,0.00,VWS V14.01,2013-10-22 10:27:00,
2013-10-22 05:30:00,33.6,29.9,30.05,SSW,211,0.0,0.0,86,0.00,,OVC018,0.00,VWS V14.01,2013-10-22 10:30:00,
2013-10-22 05:32:00,33.5,29.5,30.05,SSW,211,0.0,0.0,85,0.00,,CLR,0.00,VWS V14.01,2013-10-22 10:32:00,
2013-10-22 05:37:00,33.5,29.5,30.04,SSW,211,0.0,0.0,85,0.00,,CLR,0.00,VWS V14.01,2013-10-22 10:37:00,
2013-10-22 05:40:00,31.8,28.9,30.05,SSW,211,0.0,0.0,89,0.00,,CLR,0.00,VWS V14.01,2013-10-22 10:40:00,
2013-10-22 05:42:00,33.4,29.4,30.04,SSW,211,0.0,0.0,85,0.00,,SCT100,0.00,VWS V14.01,2013-10-22 10:42:00,
2013-10-22 05:47:00,33.6,29.9,30.04,SSW,211,0.0,0.0,86,0.00,,SCT100,0.00,VWS V14.01,2013-10-22 10:47:00,
2013-10-22 05:50:00,32.1,29.2,30.04,SSW,210,0.0,0.0,89,0.00,,CLR,0.00,VWS V14.01,2013-10-22 10:50:00,
2013-10-22 05:52:00,33.6,29.9,30.04,SSW,211,0.0,0.0,86,0.00,,SCT100,0.00,VWS V14.01,2013-10-22 10:52:00,
2013-10-22 05:57:00,33.7,30.0,30.04,SSW,211,0.0,0.0,86,0.00,,SCT100,0.00,VWS V14.01,2013-10-22 10:57:00,
2013-10-22 06:00:00,33.7,30.0,30.04,SSW,211,0.0,0.0,86,0.00,,OVC018,0.00,VWS V14.01,2013-10-22 11:00:00,
2013-10-22 06:02:00,33.8,30.1,30.04,SSW,211,0.0,0.0,86,0.00,,BKN100,0.00,VWS V14.01,2013-10-22 11:02:00,
2013-10-22 06:07:00,33.9,30.2,30.04,SSW,211,0.0,0.0,86,0.00,,BKN100,0.00,VWS V14.01,2013-10-22 11:07:00,
2013-10-22 06:10:00,33.4,30.0,30.04,SSW,211,0.0,0.0,87,0.00,,CLR,0.00,VWS V14.01,2013-10-22 11:10:00,
2013-10-22 06:12:00,34.0,30.0,30.04,SSW,211,0.0,0.0,85,0.00,,BKN100,0.00,VWS V14.01,2013-10-22 11:12:00,
2013-10-22 06:17:00,34.2,29.9,30.04,SSW,211,0.0,0.0,84,0.00,,BKN100,0.00,VWS V14.01,2013-10-22 11:17:00,
2013-10-22 06:20:00,33.6,29.9,30.04,SSW,211,0.0,0.0,86,0.00,,CLR,0.00,VWS V14.01,2013-10-22 11:20:00,
2013-10-22 06:22:00,34.5,30.2,30.04,SSW,211,0.0,0.0,84,0.00,,OVC090,0.00,VWS V14.01,2013-10-22 11:22:00,
2013-10-22 06:28:00,34.6,30.0,30.04,SSW,211,0.0,0.0,83,0.00,,OVC090,0.00,VWS V14.01,2013-10-22 11:28:00,
2013-10-22 06:30:00,34.6,30.0,30.04,SSW,211,0.0,0.0,83,0.00,,OVC018,0.00,VWS V14.01,2013-10-22 11:30:00,
2013-10-22 06:33:00,34.7,30.1,30.04,SSW,211,0.0,0.0,83,0.00,,OVC090,0.00,VWS V14.01,2013-10-22 11:33:00,
2013-10-22 06:38:00,35.1,30.8,30.04,SSW,208,0.0,0.0,84,0.00,,OVC090,0.00,VWS V14.01,2013-10-22 11:38:00,
2013-10-22 06:40:00,35.1,30.8,30.04,SSW,208,0.0,0.0,84,0.00,,OVC018,0.00,VWS V14.01,2013-10-22 11:40:00,
2013-10-22 06:43:00,35.2,30.9,30.04,SSW,208,0.0,0.0,84,0.00,,OVC090,0.00,VWS V14.01,2013-10-22 11:43:00,
2013-10-22 06:48:00,35.2,30.9,30.04,SSW,208,0.0,0.0,84,0.00,,OVC090,0.00,VWS V14.01,2013-10-22 11:48:00,
2013-10-22 06:50:00,35.2,30.9,30.04,SSW,208,0.0,0.0,84,0.00,,OVC018,0.00,VWS V14.01,2013-10-22 11:50:00,
2013-10-22 06:53:00,35.3,30.7,30.04,SSW,208,0.0,0.0,83,0.00,,OVC090,0.00,VWS V14.01,2013-10-22 11:53:00,
2013-10-22 06:58:00,35.5,30.9,30.03,SSW,208,0.0,0.0,83,0.00,,OVC090,0.00,VWS V14.01,2013-10-22 11:58:00,
2013-10-22 07:00:00,33.7,30.0,30.04,SSW,211,0.0,0.0,86,0.00,,CLR,0.00,VWS V14.01,2013-10-22 12:00:00,
2013-10-22 07:03:00,35.6,31.2,30.03,SSW,194,0.0,0.0,84,0.00,,OVC065,0.00,VWS V14.01,2013-10-22 12:03:00,
2013-10-22 07:08:00,35.6,31.2,30.03,South,173,0.0,0.0,84,0.00,,OVC065,0.00,VWS V14.01,2013-10-22 12:08:00,
2013-10-22 07:10:00,33.9,30.2,30.04,SSW,211,0.0,0.0,86,0.00,,CLR,0.00,VWS V14.01,2013-10-22 12:10:00,
2013-10-22 07:13:00,35.6,31.2,30.03,SSE,160,0.0,0.0,84,0.00,,OVC065,0.00,VWS V14.01,2013-10-22 12:13:00,
2013-10-22 07:18:00,35.7,31.4,30.03,SSE,160,0.0,0.0,84,0.00,,OVC065,0.00,VWS V14.01,2013-10-22 12:18:00,
2013-10-22 07:20:00,34.3,30.0,30.04,SSW,211,0.0,0.0,84,0.00,,CLR,0.00,VWS V14.01,2013-10-22 12:20:00,
2013-10-22 07:23:00,35.7,31.4,30.03,East,90,0.0,1.0,84,0.00,,OVC065,0.00,VWS V14.01,2013-10-22 12:23:00,
2013-10-22 07:28:00,35.7,31.4,30.03,ESE,117,0.0,0.0,84,0.00,,OVC065,0.00,VWS V14.01,2013-10-22 12:28:00,
2013-10-22 07:30:00,34.6,30.0,30.04,SSW,211,0.0,0.0,83,0.00,,CLR,0.00,VWS V14.01,2013-10-22 12:30:00,
2013-10-22 07:33:00,35.7,31.4,30.04,ESE,117,0.0,1.0,84,0.00,,OVC065,0.00,VWS V14.01,2013-10-22 12:33:00,
2013-10-22 07:38:00,35.8,31.5,30.03,SE,139,0.0,0.0,84,0.00,,OVC065,0.00,VWS V14.01,2013-10-22 12:38:00,
2013-10-22 07:40:00,35.1,30.8,30.04,SSW,208,0.0,0.0,84,0.00,,CLR,0.00,VWS V14.01,2013-10-22 12:40:00,
2013-10-22 07:43:00,35.9,31.5,30.03,SE,139,0.0,1.0,84,0.00,,OVC085,0.00,VWS V14.01,2013-10-22 12:43:00,
2013-10-22 07:48:00,35.9,31.5,30.03,SE,138,0.0,0.0,84,0.00,,OVC085,0.00,VWS V14.01,2013-10-22 12:48:00,
2013-10-22 07:50:00,35.2,30.9,30.04,SSW,208,0.0,0.0,84,0.00,,CLR,0.00,VWS V14.01,2013-10-22 12:50:00,
2013-10-22 07:54:00,36.0,31.6,30.03,SSW,211,0.0,0.0,84,0.00,,OVC085,0.00,VWS V14.01,2013-10-22 12:54:00,
2013-10-22 07:59:00,36.1,31.7,30.03,SSW,202,0.0,1.0,84,0.00,,OVC085,0.00,VWS V14.01,2013-10-22 12:59:00,
2013-10-22 08:00:00,36.0,31.6,30.03,SSW,203,0.0,2.0,84,0.00,,OVC018,0.00,VWS V14.01,2013-10-22 13:00:00,
2013-10-22 08:04:00,36.1,31.7,30.03,SSW,200,1.0,1.0,84,0.00,,OVC065,0.00,VWS V14.01,2013-10-22 13:04:00,
2013-10-22 08:09:00,36.2,31.8,30.03,SSE,162,1.0,2.0,84,0.00,,OVC065,0.00,VWS V14.01,2013-10-22 13:09:00,
2013-10-22 08:10:00,36.1,31.7,30.03,SSE,156,1.0,2.0,84,0.00,,OVC018,0.00,VWS V14.01,2013-10-22 13:10:00,
2013-10-22 08:14:00,36.3,31.9,30.03,SSE,165,0.0,2.0,84,0.00,,OVC065,0.00,VWS V14.01,2013-10-22 13:14:00,
2013-10-22 08:19:00,36.5,32.1,30.03,South,181,0.0,0.0,84,0.00,,OVC065,0.00,VWS V14.01,2013-10-22 13:19:00,
2013-10-22 08:20:00,35.7,31.4,30.03,SSE,160,0.0,0.0,84,0.00,,CLR,0.00,VWS V14.01,2013-10-22 13:20:00,
2013-10-22 08:24:00,36.6,32.2,30.03,South,172,0.0,2.0,84,0.00,,OVC065,0.00,VWS V14.01,2013-10-22 13:24:00,
2013-10-22 08:29:00,36.7,32.3,30.03,SSE,163,0.0,0.0,84,0.00,,OVC065,0.00,VWS V14.01,2013-10-22 13:29:00,
2013-10-22 08:30:00,36.7,32.3,30.03,SSE,165,0.0,2.0,84,0.00,,OVC018,0.00,VWS V14.01,2013-10-22 13:30:00,
2013-10-22 08:34:00,36.9,32.5,30.03,SSW,197,0.0,0.0,84,0.00,,OVC065,0.00,VWS V14.01,2013-10-22 13:34:00,
2013-10-22 08:39:00,37.1,32.4,30.03,SSE,150,0.0,0.0,83,0.00,,OVC065,0.00,VWS V14.01,2013-10-22 13:39:00,
2013-10-22 08:40:00,37.0,32.6,30.03,SE,142,0.0,0.0,84,0.00,,OVC018,0.00,VWS V14.01,2013-10-22 13:40:00,
2013-10-22 08:44:00,37.3,32.6,30.03,SE,143,1.0,2.0,83,0.00,,OVC065,0.00,VWS V14.01,2013-10-22 13:44:00,
2013-10-22 08:49:00,37.5,32.8,30.03,SSW,200,1.0,2.0,83,0.00,,OVC065,0.00,VWS V14.01,2013-10-22 13:49:00,
2013-10-22 08:50:00,37.5,33.1,30.03,South,179,1.0,2.0,84,0.00,,OVC018,0.00,VWS V14.01,2013-10-22 13:50:00,
2013-10-22 08:54:00,37.6,32.9,30.03,ESE,123,0.0,3.0,83,0.00,,OVC065,0.00,VWS V14.01,2013-10-22 13:54:00,
2013-10-22 08:59:00,37.7,32.7,30.03,SE,143,1.0,1.0,82,0.00,,OVC065,0.00,VWS V14.01,2013-10-22 13:59:00,
2013-10-22 09:00:00,37.7,33.0,30.03,SSW,194,1.0,3.0,83,0.00,,OVC018,0.00,VWS V14.01,2013-10-22 14:00:00,
2013-10-22 09:04:00,37.9,32.9,30.03,SSE,152,0.0,2.0,82,0.00,,OVC065,0.00,VWS V14.01,2013-10-22 14:04:00,
2013-10-22 09:09:00,38.1,33.4,30.03,SSE,152,0.0,1.0,83,0.00,,OVC065,0.00,VWS V14.01,2013-10-22 14:09:00,
2013-10-22 09:10:00,38.0,33.3,30.03,SSE,152,0.0,2.0,83,0.00,,OVC018,0.00,VWS V14.01,2013-10-22 14:10:00,
2013-10-22 09:15:00,38.2,33.5,30.03,SSE,152,0.0,1.0,83,0.00,,OVC065,0.00,VWS V14.01,2013-10-22 14:15:00,
2013-10-22 09:20:00,38.5,34.4,30.03,South,190,1.0,2.0,85,0.00,,OVC065,0.00,VWS V14.01,2013-10-22 14:20:00,
2013-10-22 09:25:00,38.7,34.3,30.03,SSE,158,1.0,2.0,84,0.00,,OVC065,0.00,VWS V14.01,2013-10-22 14:25:00,
2013-10-22 09:30:00,38.9,34.5,30.02,ESE,110,0.0,2.0,84,0.00,,OVC065,0.00,VWS V14.01,2013-10-22 14:30:00,
2013-10-22 09:35:00,39.1,35.3,30.02,SSE,158,2.0,3.0,86,0.00,,OVC065,0.00,VWS V14.01,2013-10-22 14:35:00,
2013-10-22 09:40:00,39.2,35.4,30.02,South,187,2.0,3.0,86,0.00,,BKN065,0.00,VWS V14.01,2013-10-22 14:40:00,
2013-10-22 09:45:00,39.3,35.5,30.01,South,174,2.0,3.0,86,0.00,,BKN065,0.00,VWS V14.01,2013-10-22 14:45:00,
2013-10-22 09:50:00,39.3,35.5,30.01,SSE,159,0.0,4.0,86,0.00,,BKN065,0.00,VWS V14.01,2013-10-22 14:50:00,
2013-10-22 09:55:00,39.3,35.5,30.01,SSW,200,0.0,4.0,86,0.00,,BKN065,0.00,VWS V14.01,2013-10-22 14:55:00,
2013-10-22 10:00:00,39.4,35.9,30.01,East,79,2.0,2.0,87,0.00,,BKN048,0.00,VWS V14.01,2013-10-22 15:00:00,
2013-10-22 10:05:00,39.5,36.0,30.00,South,172,1.0,2.0,87,0.00,,BKN048,0.00,VWS V14.01,2013-10-22 15:05:00,
2013-10-22 10:10:00,39.5,36.2,30.00,ESE,109,3.0,3.0,88,0.00,,BKN048,0.00,VWS V14.01,2013-10-22 15:10:00,
2013-10-22 10:15:00,39.6,36.3,30.00,SSE,155,0.0,3.0,88,0.01,,BKN048,0.01,VWS V14.01,2013-10-22 15:15:00,
2013-10-22 10:20:00,39.7,36.7,30.00,SSE,150,1.0,2.0,89,0.01,,-RA,0.01,VWS V14.01,2013-10-22 15:20:00,
2013-10-22 10:25:00,39.7,36.7,30.00,SSE,149,0.0,2.0,89,0.02,,-RA,0.02,VWS V14.01,2013-10-22 15:25:00,
2013-10-22 10:30:00,39.6,36.6,30.00,SSE,158,0.0,3.0,89,0.02,,-RA,0.02,VWS V14.01,2013-10-22 15:30:00,
2013-10-22 10:36:00,39.5,36.5,29.99,South,178,2.0,3.0,89,0.02,,-RA,0.02,VWS V14.01,2013-10-22 15:36:00,
2013-10-22 10:40:00,39.4,36.7,29.99,ESE,107,1.0,3.0,90,0.03,,OVC018,0.03,VWS V14.01,2013-10-22 15:40:00,
2013-10-22 10:41:00,39.4,36.7,29.99,ESE,120,0.0,3.0,90,0.03,,RA,0.03,VWS V14.01,2013-10-22 15:41:00,
2013-10-22 10:46:00,39.3,36.6,30.00,ESE,109,0.0,3.0,90,0.03,,RA,0.03,VWS V14.01,2013-10-22 15:46:00,
2013-10-22 10:50:00,39.3,36.6,30.00,SE,128,0.0,3.0,90,0.03,,OVC018,0.03,VWS V14.01,2013-10-22 15:50:00,
2013-10-22 10:51:00,39.3,36.6,30.00,ESE,103,1.0,3.0,90,0.03,,RA,0.03,VWS V14.01,2013-10-22 15:51:00,
2013-10-22 10:56:00,39.2,36.8,29.99,East,98,2.0,3.0,91,0.03,,RA,0.03,VWS V14.01,2013-10-22 15:56:00,
2013-10-22 11:00:00,39.2,36.8,29.99,East,88,1.0,3.0,91,0.03,,OVC018,0.03,VWS V14.01,2013-10-22 16:00:00,
2013-10-22 11:01:00,39.2,36.8,29.99,East,89,0.0,4.0,91,0.04,,RA,0.04,VWS V14.01,2013-10-22 16:01:00,
2013-10-22 11:06:00,39.3,36.9,29.99,ENE,77,0.0,4.0,91,0.04,,RA,0.04,VWS V14.01,2013-10-22 16:06:00,
2013-10-22 11:10:00,39.5,36.0,30.00,SSE,160,3.0,4.0,87,0.00,,CLR,0.00,VWS V14.01,2013-10-22 16:10:00,
2013-10-22 11:11:00,39.4,37.3,29.98,East,82,2.0,2.0,92,0.04,,RA,0.04,VWS V14.01,2013-10-22 16:11:00,
2013-10-22 11:16:00,39.5,37.4,29.98,ESE,121,3.0,5.0,92,0.05,,RA,0.05,VWS V14.01,2013-10-22 16:16:00,
2013-10-22 11:20:00,39.5,37.4,29.98,ESE,120,1.0,5.0,92,0.05,,OVC018,0.05,VWS V14.01,2013-10-22 16:20:00,
2013-10-22 11:21:00,39.6,37.5,29.97,SE,129,3.0,6.0,92,0.04,,RA,0.05,VWS V14.01,2013-10-22 16:21:00,
2013-10-22 11:26:00,39.7,37.6,29.97,ENE,78,4.0,6.0,92,0.04,,RA,0.05,VWS V14.01,2013-10-22 16:26:00,
2013-10-22 11:30:00,39.6,36.6,30.00,South,170,1.0,5.0,89,0.02,,CLR,0.02,VWS V14.01,2013-10-22 16:30:00,
2013-10-22 11:31:00,40.0,37.9,29.97,East,96,2.0,6.0,92,0.03,,RA,0.05,VWS V14.01,2013-10-22 16:31:00,
2013-10-22 11:36:00,40.1,38.2,29.97,SE,131,2.0,6.0,93,0.04,,RA,0.06,VWS V14.01,2013-10-22 16:36:00,
2013-10-22 11:40:00,40.2,38.3,29.97,SE,127,2.0,6.0,93,0.04,,OVC018,0.06,VWS V14.01,2013-10-22 16:40:00,
2013-10-22 11:42:00,40.3,38.4,29.97,ESE,104,0.0,3.0,93,0.03,, +RA,0.06,VWS V14.01,2013-10-22 16:42:00,
2013-10-22 11:47:00,40.5,38.6,29.97,ENE,65,1.0,5.0,93,0.03,, +RA,0.06,VWS V14.01,2013-10-22 16:47:00,
2013-10-22 11:50:00,40.6,38.7,29.97,ESE,108,2.0,5.0,93,0.03,,OVC018,0.06,VWS V14.01,2013-10-22 16:50:00,
2013-10-22 11:52:00,40.6,38.7,29.97,ENE,63,0.0,5.0,93,0.04,, +RA,0.07,VWS V14.01,2013-10-22 16:52:00,
2013-10-22 11:57:00,40.7,38.8,29.97,ENE,65,0.0,5.0,93,0.05,, +RA,0.08,VWS V14.01,2013-10-22 16:57:00,
2013-10-22 12:00:00,40.7,38.8,29.97,ENE,65,0.0,5.0,93,0.05,,OVC018,0.08,VWS V14.01,2013-10-22 17:00:00,
2013-10-22 12:02:00,40.8,38.9,29.97,East,90,3.0,6.0,93,0.05,,RA,0.08,VWS V14.01,2013-10-22 17:02:00,
2013-10-22 12:07:00,40.9,39.0,29.96,ENE,72,3.0,6.0,93,0.05,,RA,0.08,VWS V14.01,2013-10-22 17:07:00,
2013-10-22 12:10:00,40.9,39.0,29.96,SE,141,3.0,6.0,93,0.05,,OVC018,0.08,VWS V14.01,2013-10-22 17:10:00,
2013-10-22 12:12:00,40.9,39.0,29.96,ESE,110,1.0,4.0,93,0.05,,RA,0.09,VWS V14.01,2013-10-22 17:12:00,
2013-10-22 12:17:00,41.1,39.2,29.96,SSE,165,1.0,4.0,93,0.05,,RA,0.09,VWS V14.01,2013-10-22 17:17:00,
2013-10-22 12:20:00,41.1,39.2,29.96,SSE,162,1.0,4.0,93,0.05,,OVC018,0.09,VWS V14.01,2013-10-22 17:20:00,
2013-10-22 12:22:00,41.2,39.3,29.96,ESE,107,1.0,4.0,93,0.05,,RA,0.10,VWS V14.01,2013-10-22 17:22:00,
2013-10-22 12:27:00,41.3,39.4,29.96,SE,141,1.0,4.0,93,0.06,,RA,0.11,VWS V14.01,2013-10-22 17:27:00,
2013-10-22 12:30:00,41.3,39.4,29.96,ESE,114,2.0,4.0,93,0.06,,OVC018,0.11,VWS V14.01,2013-10-22 17:30:00,
2013-10-22 12:32:00,41.3,39.4,29.95,SSE,166,1.0,6.0,93,0.07,,RA,0.12,VWS V14.01,2013-10-22 17:32:00,
2013-10-22 12:37:00,41.3,39.4,29.95,SSE,148,3.0,6.0,93,0.08,,RA,0.13,VWS V14.01,2013-10-22 17:37:00,
2013-10-22 12:40:00,41.2,39.3,29.95,ESE,120,2.0,6.0,93,0.08,,OVC018,0.13,VWS V14.01,2013-10-22 17:40:00,
2013-10-22 12:42:00,41.3,39.4,29.95,SSW,205,3.0,8.0,93,0.08,,RA,0.14,VWS V14.01,2013-10-22 17:42:00,
2013-10-22 12:47:00,41.3,39.4,29.95,South,179,3.0,8.0,93,0.09,,RA,0.15,VWS V14.01,2013-10-22 17:47:00,
2013-10-22 12:50:00,41.3,39.4,29.95,SW,223,1.0,8.0,93,0.09,,OVC018,0.15,VWS V14.01,2013-10-22 17:50:00,
2013-10-22 12:52:00,41.3,39.2,29.95,ESE,111,4.0,4.0,92,0.10,,RA,0.16,VWS V14.01,2013-10-22 17:52:00,
2013-10-22 12:57:00,41.3,39.2,29.95,ENE,74,1.0,5.0,92,0.11,,RA,0.17,VWS V14.01,2013-10-22 17:57:00,
2013-10-22 13:00:00,41.3,39.2,29.95,ENE,62,1.0,5.0,92,0.11,,OVC018,0.17,VWS V14.01,2013-10-22 18:00:00,
2013-10-22 13:02:00,41.2,39.1,29.94,SE,134,2.0,5.0,92,0.10,,RA,0.18,VWS V14.01,2013-10-22 18:02:00,
2013-10-22 13:07:00,41.2,39.1,29.94,SSE,162,2.0,5.0,92,0.10,,RA,0.18,VWS V14.01,2013-10-22 18:07:00,
2013-10-22 13:10:00,41.2,39.1,29.94,SSE,162,3.0,5.0,92,0.10,,OVC018,0.18,VWS V14.01,2013-10-22 18:10:00,
2013-10-22 13:12:00,41.3,39.2,29.93,SE,127,3.0,4.0,92,0.11,,RA,0.19,VWS V14.01,2013-10-22 18:12:00,
2013-10-22 13:18:00,41.3,39.2,29.93,SE,129,1.0,5.0,92,0.11,,RA,0.19,VWS V14.01,2013-10-22 18:18:00,
2013-10-22 13:20:00,41.3,39.2,29.93,SE,129,1.0,5.0,92,0.11,,OVC018,0.19,VWS V14.01,2013-10-22 18:20:00,
2013-10-22 13:23:00,41.2,39.1,29.92,SE,124,1.0,6.0,92,0.11,,RA,0.20,VWS V14.01,2013-10-22 18:23:00,
2013-10-22 13:28:00,41.1,39.0,29.92,East,96,1.0,2.0,92,0.09,,RA,0.20,VWS V14.01,2013-10-22 18:28:00,
2013-10-22 13:30:00,41.1,39.0,29.92,East,96,2.0,6.0,92,0.11,,OVC018,0.20,VWS V14.01,2013-10-22 18:30:00,
2013-10-22 13:33:00,41.1,39.2,29.92,East,91,0.0,5.0,93,0.09,,RA,0.20,VWS V14.01,2013-10-22 18:33:00,
2013-10-22 13:38:00,41.1,39.2,29.91,East,84,0.0,0.0,93,0.08,,RA,0.21,VWS V14.01,2013-10-22 18:38:00,
2013-10-22 13:40:00,41.1,39.2,29.91,East,84,0.0,6.0,93,0.10,,OVC018,0.21,VWS V14.01,2013-10-22 18:40:00,
2013-10-22 13:43:00,41.1,39.2,29.91,NE,41,0.0,5.0,93,0.08,,-RA,0.21,VWS V14.01,2013-10-22 18:43:00,
2013-10-22 13:48:00,41.1,39.2,29.90,ENE,68,2.0,4.0,93,0.07,,-RA,0.22,VWS V14.01,2013-10-22 18:48:00,
2013-10-22 13:50:00,41.1,39.2,29.90,East,94,3.0,5.0,93,0.08,,OVC018,0.21,VWS V14.01,2013-10-22 18:50:00,
2013-10-22 13:53:00,41.1,39.5,29.90,ESE,111,4.0,5.0,94,0.07,,-RA,0.22,VWS V14.01,2013-10-22 18:53:00,
2013-10-22 13:58:00,41.1,39.5,29.90,East,95,2.0,3.0,94,0.05,,-RA,0.22,VWS V14.01,2013-10-22 18:58:00,
2013-10-22 14:00:00,41.1,39.5,29.90,East,82,2.0,6.0,94,0.07,,OVC018,0.22,VWS V14.01,2013-10-22 19:00:00,
2013-10-22 14:03:00,41.1,39.5,29.89,SE,127,0.0,9.0,94,0.05,,RA,0.22,VWS V14.01,2013-10-22 19:03:00,
2013-10-22 14:08:00,41.0,39.4,29.90,SE,136,1.0,1.0,94,0.04,,RA,0.22,VWS V14.01,2013-10-22 19:08:00,
2013-10-22 14:10:00,41.0,39.4,29.89,SSW,193,1.0,9.0,94,0.05,,OVC018,0.22,VWS V14.01,2013-10-22 19:10:00,
2013-10-22 14:13:00,41.0,39.4,29.89,South,181,1.0,4.0,94,0.04,,RA,0.22,VWS V14.01,2013-10-22 19:13:00,
2013-10-22 14:18:00,40.9,39.3,29.89,SSE,165,3.0,6.0,94,0.03,,RA,0.22,VWS V14.01,2013-10-22 19:18:00,
2013-10-22 14:20:00,40.9,39.3,29.89,South,172,3.0,5.0,94,0.04,,OVC018,0.22,VWS V14.01,2013-10-22 19:20:00,
2013-10-22 14:23:00,40.9,39.3,29.89,ESE,104,1.0,6.0,94,0.03,,-RA,0.22,VWS V14.01,2013-10-22 19:23:00,
2013-10-22 14:28:00,40.8,39.2,29.89,South,169,2.0,3.0,94,0.03,,-RA,0.23,VWS V14.01,2013-10-22 19:28:00,
2013-10-22 14:30:00,40.8,39.2,29.89,NE,47,1.0,7.0,94,0.04,,OVC018,0.23,VWS V14.01,2013-10-22 19:30:00,
2013-10-22 14:33:00,40.8,39.2,29.89,East,96,2.0,6.0,94,0.03,,-RA,0.23,VWS V14.01,2013-10-22 19:33:00,
2013-10-22 14:38:00,40.9,39.3,29.89,ESE,113,2.0,5.0,94,0.03,,-RA,0.24,VWS V14.01,2013-10-22 19:38:00,
2013-10-22 14:40:00,40.9,39.3,29.89,ENE,78,2.0,9.0,94,0.04,,OVC018,0.24,VWS V14.01,2013-10-22 19:40:00,
2013-10-22 14:43:00,40.9,39.3,29.89,SE,141,3.0,5.0,94,0.03,,RA,0.24,VWS V14.01,2013-10-22 19:43:00,
2013-10-22 14:49:00,40.8,39.2,29.89,NE,51,0.0,4.0,94,0.04,,RA,0.25,VWS V14.01,2013-10-22 19:49:00,
2013-10-22 14:50:00,40.8,39.5,29.89,SE,138,3.0,6.0,95,0.04,,OVC018,0.25,VWS V14.01,2013-10-22 19:50:00,
2013-10-22 14:54:00,40.9,39.6,29.89,East,94,1.0,4.0,95,0.04,,RA,0.25,VWS V14.01,2013-10-22 19:54:00,
2013-10-22 14:59:00,40.8,39.5,29.89,East,90,2.0,4.0,95,0.04,,RA,0.26,VWS V14.01,2013-10-22 19:59:00,
2013-10-22 15:00:00,40.8,39.5,29.89,SSE,150,3.0,6.0,95,0.05,,OVC018,0.26,VWS V14.01,2013-10-22 20:00:00,
2013-10-22 15:04:00,40.8,39.5,29.90,East,79,1.0,4.0,95,0.04,,RA,0.26,VWS V14.01,2013-10-22 20:04:00,
2013-10-22 15:09:00,40.9,39.6,29.90,ESE,113,0.0,3.0,95,0.04,,RA,0.26,VWS V14.01,2013-10-22 20:09:00,
2013-10-22 15:10:00,40.8,39.5,29.89,SSW,204,3.0,5.0,95,0.04,,OVC018,0.26,VWS V14.01,2013-10-22 20:10:00,
2013-10-22 15:14:00,40.7,39.4,29.89,East,93,2.0,7.0,95,0.04,,RA,0.26,VWS V14.01,2013-10-22 20:14:00,
2013-10-22 15:19:00,40.6,39.3,29.90,ESE,119,3.0,4.0,95,0.05,,RA,0.27,VWS V14.01,2013-10-22 20:19:00,
2013-10-22 15:20:00,40.6,39.3,29.89,East,90,2.0,7.0,95,0.05,,OVC018,0.27,VWS V14.01,2013-10-22 20:20:00,
2013-10-22 15:24:00,40.6,39.3,29.89,East,84,0.0,4.0,95,0.05,,-RA,0.27,VWS V14.01,2013-10-22 20:24:00,
2013-10-22 15:29:00,40.6,39.3,29.89,NE,49,0.0,0.0,95,0.04,,-RA,0.27,VWS V14.01,2013-10-22 20:29:00,
2013-10-22 15:30:00,40.6,39.3,29.90,NE,49,0.0,4.0,95,0.05,,OVC018,0.27,VWS V14.01,2013-10-22 20:30:00,
2013-10-22 15:34:00,40.5,39.2,29.90,South,183,2.0,5.0,95,0.05,,-RA,0.28,VWS V14.01,2013-10-22 20:34:00,
2013-10-22 15:39:00,40.4,39.1,29.90,East,83,1.0,4.0,95,0.05,,-RA,0.29,VWS V14.01,2013-10-22 20:39:00,
2013-10-22 15:40:00,40.5,39.2,29.90,East,89,0.0,5.0,95,0.06,,OVC018,0.29,VWS V14.01,2013-10-22 20:40:00,
2013-10-22 15:44:00,40.4,39.1,29.90,NE,45,1.0,9.0,95,0.05,,-RA,0.29,VWS V14.01,2013-10-22 20:44:00,
2013-10-22 15:49:00,40.4,39.1,29.90,ENE,70,0.0,1.0,95,0.05,,-RA,0.30,VWS V14.01,2013-10-22 20:49:00,
2013-10-22 15:50:00,40.4,39.1,29.90,East,80,1.0,9.0,95,0.06,,OVC018,0.30,VWS V14.01,2013-10-22 20:50:00,
2013-10-22 15:54:00,40.3,39.0,29.90,NE,44,0.0,2.0,95,0.05,,-RA,0.30,VWS V14.01,2013-10-22 20:54:00,
2013-10-22 15:59:00,40.1,38.8,29.90,NE,41,0.0,1.0,95,0.04,,-RA,0.30,VWS V14.01,2013-10-22 20:59:00,
2013-10-22 16:00:00,40.3,39.0,29.90,NE,40,1.0,2.0,95,0.05,,OVC018,0.30,VWS V14.01,2013-10-22 21:00:00,
2013-10-22 16:05:00,39.9,38.6,29.90,ENE,58,1.0,3.0,95,0.04,,-RA,0.30,VWS V14.01,2013-10-22 21:05:00,
2013-10-22 16:10:00,39.6,38.3,29.90,NE,44,2.0,6.0,95,0.04,,-RA,0.30,VWS V14.01,2013-10-22 21:10:00,
2013-10-22 16:15:00,39.2,37.9,29.90,NE,44,2.0,6.0,95,0.04,,-RA,0.30,VWS V14.01,2013-10-22 21:15:00,
2013-10-22 16:20:00,38.9,37.6,29.90,ENE,61,0.0,5.0,95,0.04,,,0.31,VWS V14.01,2013-10-22 21:20:00,
2013-10-22 16:25:00,38.9,37.6,29.90,NE,46,1.0,5.0,95,0.04,,,0.31,VWS V14.01,2013-10-22 21:25:00,
2013-10-22 16:30:00,38.8,37.5,29.90,NE,46,1.0,3.0,95,0.04,,,0.31,VWS V14.01,2013-10-22 21:30:00,
2013-10-22 16:35:00,38.7,37.4,29.90,NE,37,1.0,4.0,95,0.04,,,0.31,VWS V14.01,2013-10-22 21:35:00,
2013-10-22 16:40:00,38.7,37.4,29.90,NE,34,1.0,5.0,95,0.02,,,0.31,VWS V14.01,2013-10-22 21:40:00,
2013-10-22 16:45:00,38.7,37.4,29.90,ENE,68,1.0,5.0,95,0.02,,,0.31,VWS V14.01,2013-10-22 21:45:00,
2013-10-22 16:50:00,38.7,37.4,29.90,ENE,62,1.0,4.0,95,0.02,,,0.32,VWS V14.01,2013-10-22 21:50:00,
2013-10-22 16:55:00,38.5,37.2,29.90,NNE,32,2.0,5.0,95,0.02,,,0.32,VWS V14.01,2013-10-22 21:55:00,
2013-10-22 17:00:00,38.2,36.9,29.91,ENE,58,3.0,8.0,95,0.02,,-RA,0.32,VWS V14.01,2013-10-22 22:00:00,
2013-10-22 17:05:00,37.9,36.6,29.91,NE,37,2.0,8.0,95,0.02,,-RA,0.32,VWS V14.01,2013-10-22 22:05:00,
2013-10-22 17:10:00,37.6,36.3,29.91,NE,46,1.0,8.0,95,0.03,,-RA,0.33,VWS V14.01,2013-10-22 22:10:00,
2013-10-22 17:15:00,37.4,36.1,29.91,NE,38,3.0,8.0,95,0.03,,-RA,0.33,VWS V14.01,2013-10-22 22:15:00,
2013-10-22 17:20:00,37.2,35.9,29.91,NNE,27,4.0,6.0,95,0.03,,-RA,0.34,VWS V14.01,2013-10-22 22:20:00,
2013-10-22 17:25:00,37.1,35.8,29.92,ENE,77,2.0,6.0,95,0.03,,-RA,0.34,VWS V14.01,2013-10-22 22:25:00,
2013-10-22 17:30:00,37.0,35.7,29.92,NE,42,1.0,11.0,95,0.04,,OVC018,0.35,VWS V14.01,2013-10-22 22:30:00,
2013-10-22 17:31:00,36.9,35.6,29.92,NNE,32,3.0,5.0,95,0.04,,-RA,0.35,VWS V14.01,2013-10-22 22:31:00,
2013-10-22 17:36:00,36.7,35.4,29.92,NE,42,2.0,9.0,95,0.04,,-RA,0.35,VWS V14.01,2013-10-22 22:36:00,
2013-10-22 17:40:00,36.6,35.3,29.92,ENE,60,1.0,9.0,95,0.04,,OVC018,0.35,VWS V14.01,2013-10-22 22:40:00,
2013-10-22 17:41:00,36.4,35.1,29.92,ENE,58,2.0,5.0,95,0.04,,-RA,0.35,VWS V14.01,2013-10-22 22:41:00,
2013-10-22 17:46:00,36.2,34.9,29.92,NE,50,1.0,5.0,95,0.04,,-RA,0.35,VWS V14.01,2013-10-22 22:46:00,
2013-10-22 17:50:00,36.1,34.8,29.92,NE,49,1.0,5.0,95,0.04,,OVC018,0.35,VWS V14.01,2013-10-22 22:50:00,
2013-10-22 17:51:00,36.1,34.8,29.92,NNE,30,4.0,4.0,95,0.05,,-RA,0.36,VWS V14.01,2013-10-22 22:51:00,
2013-10-22 17:56:00,35.9,34.6,29.93,NE,54,2.0,5.0,95,0.05,,-RA,0.36,VWS V14.01,2013-10-22 22:56:00,
2013-10-22 18:00:00,35.9,34.6,29.93,NE,44,1.0,5.0,95,0.05,,OVC018,0.36,VWS V14.01,2013-10-22 23:00:00,
2013-10-22 18:02:00,35.8,34.5,29.93,ENE,65,1.0,3.0,95,0.04,,-RA,0.36,VWS V14.01,2013-10-22 23:02:00,
2013-10-22 18:07:00,35.7,34.4,29.93,NE,42,4.0,7.0,95,0.04,,-RA,0.36,VWS V14.01,2013-10-22 23:07:00,
2013-10-22 18:10:00,35.6,34.3,29.93,NNE,25,4.0,7.0,95,0.04,,OVC018,0.36,VWS V14.01,2013-10-22 23:10:00,
2013-10-22 18:12:00,35.5,34.2,29.93,NE,37,2.0,4.0,95,0.04,,-RA,0.37,VWS V14.01,2013-10-22 23:12:00,
2013-10-22 18:17:00,35.3,34.0,29.93,ENE,58,3.0,6.0,95,0.04,,-RA,0.37,VWS V14.01,2013-10-22 23:17:00,
2013-10-22 18:20:00,35.3,34.0,29.93,NNE,27,4.0,6.0,95,0.04,,OVC018,0.37,VWS V14.01,2013-10-22 23:20:00,
2013-10-22 18:22:00,35.1,33.8,29.94,NNE,27,1.0,4.0,95,0.03,,-RA,0.37,VWS V14.01,2013-10-22 23:22:00,
2013-10-22 18:27:00,35.0,33.7,29.94,NE,49,2.0,5.0,95,0.04,,-RA,0.38,VWS V14.01,2013-10-22 23:27:00,
2013-10-22 18:30:00,35.0,33.7,29.94,NE,51,1.0,5.0,95,0.04,,OVC018,0.38,VWS V14.01,2013-10-22 23:30:00,
2013-10-22 18:32:00,34.8,33.5,29.94,NE,34,1.0,3.0,95,0.03,,-RA,0.38,VWS V14.01,2013-10-22 23:32:00,
2013-10-22 18:37:00,34.7,33.4,29.94,NE,44,0.0,3.0,95,0.03,,-RA,0.38,VWS V14.01,2013-10-22 23:37:00,
2013-10-22 18:40:00,34.7,33.4,29.94,NE,34,1.0,3.0,95,0.03,,OVC018,0.38,VWS V14.01,2013-10-22 23:40:00,
2013-10-22 18:42:00,34.7,33.4,29.94,NE,34,2.0,3.0,95,0.03,,-RA,0.38,VWS V14.01,2013-10-22 23:42:00,
2013-10-22 18:47:00,34.7,33.4,29.94,NE,37,1.0,3.0,95,0.03,,-RA,0.38,VWS V14.01,2013-10-22 23:47:00,
2013-10-22 18:50:00,34.7,33.4,29.94,NE,37,1.0,3.0,95,0.03,,OVC018,0.38,VWS V14.01,2013-10-22 23:50:00,
2013-10-22 18:52:00,34.8,33.8,29.95,NNE,32,2.0,3.0,96,0.03,,-RA,0.38,VWS V14.01,2013-10-22 23:52:00,
2013-10-22 18:58:00,34.8,33.8,29.95,ENE,57,0.0,3.0,96,0.03,,-RA,0.38,VWS V14.01,2013-10-22 23:58:00,
2013-10-22 19:00:00,34.8,33.8,29.95,ENE,57,0.0,3.0,96,0.03,,OVC018,0.38,VWS V14.01,2013-10-23 00:00:00,
2013-10-22 19:03:00,34.9,33.9,29.95,NNE,15,2.0,2.0,96,0.03,,,0.39,VWS V14.01,2013-10-23 00:03:00,
2013-10-22 19:08:00,35.0,34.0,29.95,ENE,71,0.0,3.0,96,0.03,,,0.39,VWS V14.01,2013-10-23 00:08:00,
2013-10-22 19:10:00,35.0,34.0,29.95,ENE,71,0.0,3.0,96,0.03,,OVC018,0.39,VWS V14.01,2013-10-23 00:10:00,
2013-10-22 19:13:00,35.1,34.1,29.96,NNE,23,4.0,4.0,96,0.03,,,0.39,VWS V14.01,2013-10-23 00:13:00,
2013-10-22 19:18:00,35.2,34.2,29.97,NNE,29,0.0,0.0,96,0.02,,,0.39,VWS V14.01,2013-10-23 00:18:00,
2013-10-22 19:20:00,35.2,34.2,29.96,NNE,29,0.0,4.0,96,0.03,,OVC018,0.39,VWS V14.01,2013-10-23 00:20:00,
2013-10-22 19:23:00,35.3,34.3,29.97,NNE,30,3.0,3.0,96,0.02,,-RA,0.39,VWS V14.01,2013-10-23 00:23:00,
2013-10-22 19:28:00,35.3,34.3,29.97,NE,44,0.0,1.0,96,0.01,,-RA,0.39,VWS V14.01,2013-10-23 00:28:00,
2013-10-22 19:30:00,35.3,34.3,29.97,NE,42,1.0,3.0,96,0.02,,OVC018,0.39,VWS V14.01,2013-10-23 00:30:00,
2013-10-22 19:33:00,35.5,34.5,29.97,North,359,1.0,3.0,96,0.01,,-RA,0.39,VWS V14.01,2013-10-23 00:33:00,
2013-10-22 19:38:00,35.5,34.5,29.97,NNE,27,0.0,1.0,96,0.01,,-RA,0.39,VWS V14.01,2013-10-23 00:38:00,
2013-10-22 19:40:00,35.5,34.5,29.97,ENE,60,1.0,4.0,96,0.01,,OVC018,0.39,VWS V14.01,2013-10-23 00:40:00,
2013-10-22 19:43:00,35.6,34.6,29.97,NE,41,0.0,2.0,96,0.01,,,0.39,VWS V14.01,2013-10-23 00:43:00,
2013-10-22 19:48:00,35.7,34.7,29.97,NE,41,0.0,1.0,96,0.01,,,0.39,VWS V14.01,2013-10-23 00:48:00,
2013-10-22 19:50:00,35.7,34.7,29.97,NE,41,0.0,3.0,96,0.01,,OVC018,0.39,VWS V14.01,2013-10-23 00:50:00,
2013-10-22 19:53:00,35.7,34.7,29.97,NNE,30,2.0,4.0,96,0.01,,,0.39,VWS V14.01,2013-10-23 00:53:00,
2013-10-22 19:58:00,35.8,34.8,29.97,NNE,33,1.0,3.0,96,0.01,,,0.39,VWS V14.01,2013-10-23 00:58:00,
2013-10-22 20:00:00,35.8,34.8,29.97,NNE,33,3.0,5.0,96,0.01,,OVC018,0.39,VWS V14.01,2013-10-23 01:00:00,
2013-10-22 20:03:00,35.8,34.8,29.97,NE,37,1.0,3.0,96,0.01,,OVC033,0.39,VWS V14.01,2013-10-23 01:03:00,
2013-10-22 20:08:00,35.9,34.9,29.98,NNE,25,2.0,3.0,96,0.00,,OVC033,0.39,VWS V14.01,2013-10-23 01:08:00,
2013-10-22 20:10:00,35.9,34.9,29.97,NNE,26,1.0,3.0,96,0.01,,OVC018,0.39,VWS V14.01,2013-10-23 01:10:00,
2013-10-22 20:13:00,36.0,35.0,29.98,North,4,2.0,3.0,96,0.00,,OVC033,0.39,VWS V14.01,2013-10-23 01:13:00,
2013-10-22 20:19:00,36.1,35.1,29.99,North,11,2.0,2.0,96,0.00,,OVC033,0.39,VWS V14.01,2013-10-23 01:19:00,
2013-10-22 20:20:00,36.1,35.1,29.99,NNW,338,1.0,3.0,96,0.00,,OVC018,0.39,VWS V14.01,2013-10-23 01:20:00,
2013-10-22 20:24:00,36.0,35.0,29.99,North,360,2.0,2.0,96,0.00,,OVC035,0.39,VWS V14.01,2013-10-23 01:24:00,
2013-10-22 20:29:00,36.1,35.1,29.99,NNE,25,1.0,2.0,96,0.00,,OVC035,0.39,VWS V14.01,2013-10-23 01:29:00,
2013-10-22 20:30:00,36.1,35.1,29.99,NNE,30,0.0,2.0,96,0.00,,OVC018,0.39,VWS V14.01,2013-10-23 01:30:00,
2013-10-22 20:34:00,36.1,35.1,29.99,NNE,25,1.0,2.0,96,0.00,,OVC035,0.39,VWS V14.01,2013-10-23 01:34:00,
2013-10-22 20:39:00,36.2,35.2,29.99,NNE,25,0.0,0.0,96,0.00,,OVC035,0.39,VWS V14.01,2013-10-23 01:39:00,
2013-10-22 20:40:00,36.2,35.2,29.99,NNE,25,0.0,2.0,96,0.00,,OVC018,0.39,VWS V14.01,2013-10-23 01:40:00,
2013-10-22 20:44:00,36.2,35.2,30.00,NNE,32,0.0,2.0,96,0.00,,OVC037,0.39,VWS V14.01,2013-10-23 01:44:00,
2013-10-22 20:49:00,36.2,35.2,30.00,NNE,25,1.0,2.0,96,0.00,,OVC037,0.39,VWS V14.01,2013-10-23 01:49:00,
2013-10-22 20:50:00,36.2,35.2,30.00,NE,40,0.0,2.0,96,0.00,,OVC018,0.39,VWS V14.01,2013-10-23 01:50:00,
2013-10-22 20:54:00,36.3,35.3,30.00,NE,39,0.0,2.0,96,0.00,,OVC037,0.39,VWS V14.01,2013-10-23 01:54:00,
2013-10-22 20:59:00,36.3,35.3,30.00,NNE,32,0.0,2.0,96,0.00,,OVC037,0.39,VWS V14.01,2013-10-23 01:59:00,
2013-10-22 21:00:00,36.3,35.3,30.00,NNE,32,0.0,2.0,96,0.00,,OVC018,0.39,VWS V14.01,2013-10-23 02:00:00,
2013-10-22 21:04:00,36.3,35.3,30.00,NNE,18,0.0,3.0,96,0.00,,OVC041,0.39,VWS V14.01,2013-10-23 02:04:00,
2013-10-22 21:09:00,36.3,35.3,30.00,NNE,25,0.0,0.0,96,0.00,,OVC041,0.39,VWS V14.01,2013-10-23 02:09:00,
2013-10-22 21:10:00,36.3,35.3,30.00,NNE,18,0.0,3.0,96,0.00,,OVC018,0.39,VWS V14.01,2013-10-23 02:10:00,
2013-10-22 21:14:00,36.4,35.4,30.00,NNE,25,0.0,0.0,96,0.00,,OVC041,0.39,VWS V14.01,2013-10-23 02:14:00,
2013-10-22 21:20:00,36.4,35.4,30.00,NNE,29,1.0,2.0,96,0.00,,OVC041,0.39,VWS V14.01,2013-10-23 02:20:00,
2013-10-22 21:25:00,36.4,35.4,30.01,NNE,22,0.0,2.0,96,0.00,,OVC041,0.39,VWS V14.01,2013-10-23 02:25:00,
2013-10-22 21:30:00,36.5,35.5,30.01,West,280,1.0,1.0,96,0.00,,OVC041,0.39,VWS V14.01,2013-10-23 02:30:00,
2013-10-22 21:35:00,36.5,35.5,30.01,NNW,335,1.0,3.0,96,0.00,,OVC041,0.39,VWS V14.01,2013-10-23 02:35:00,
2013-10-22 21:40:00,36.5,35.5,30.01,North,1,0.0,2.0,96,0.00,,OVC012,0.39,VWS V14.01,2013-10-23 02:40:00,
2013-10-22 21:45:00,36.5,35.5,30.01,West,274,1.0,2.0,96,0.00,,OVC012,0.39,VWS V14.01,2013-10-23 02:45:00,
2013-10-22 21:50:00,36.5,35.5,30.01,NNE,21,2.0,2.0,96,0.00,,OVC012,0.39,VWS V14.01,2013-10-23 02:50:00,
2013-10-22 21:55:00,36.5,35.5,30.02,North,359,3.0,3.0,96,0.00,,OVC012,0.39,VWS V14.01,2013-10-23 02:55:00,
2013-10-22 22:00:00,36.4,35.4,30.01,North,5,1.0,2.0,96,0.00,,OVC012,0.39,VWS V14.01,2013-10-23 03:00:00,
2013-10-22 22:05:00,36.3,35.3,30.01,NNE,20,0.0,2.0,96,0.00,,OVC012,0.39,VWS V14.01,2013-10-23 03:05:00,
2013-10-22 22:10:00,36.4,35.4,30.01,NNE,13,0.0,0.0,96,0.00,,OVC012,0.39,VWS V14.01,2013-10-23 03:10:00,
2013-10-22 22:15:00,36.4,35.4,30.01,North,354,0.0,0.0,96,0.00,,OVC012,0.39,VWS V14.01,2013-10-23 03:15:00,
2013-10-22 22:20:00,36.5,35.5,30.01,NNE,20,0.0,0.0,96,0.00,,,0.39,VWS V14.01,2013-10-23 03:20:00,
2013-10-22 22:25:00,36.6,35.6,30.02,NNE,19,0.0,1.0,96,0.00,,,0.39,VWS V14.01,2013-10-23 03:25:00,
2013-10-22 22:30:00,36.6,35.6,30.01,NNE,19,0.0,0.0,96,0.00,,,0.39,VWS V14.01,2013-10-23 03:30:00,
2013-10-22 22:35:00,36.6,35.6,30.01,NNE,19,0.0,0.0,96,0.00,,,0.39,VWS V14.01,2013-10-23 03:35:00,
2013-10-22 22:40:00,36.6,35.6,30.01,NNE,13,0.0,0.0,96,0.00,,OVC018,0.39,VWS V14.01,2013-10-23 03:40:00,
2013-10-22 22:41:00,36.7,35.7,30.01,NNE,12,0.0,0.0,96,0.00,,,0.39,VWS V14.01,2013-10-23 03:41:00,
2013-10-22 22:46:00,36.7,35.7,30.01,WNW,303,0.0,1.0,96,0.00,,,0.39,VWS V14.01,2013-10-23 03:46:00,
2013-10-22 22:50:00,36.7,35.7,30.01,WNW,303,0.0,1.0,96,0.00,,OVC018,0.39,VWS V14.01,2013-10-23 03:50:00,
2013-10-22 22:51:00,36.7,35.7,30.01,East,87,0.0,0.0,96,0.00,,,0.39,VWS V14.01,2013-10-23 03:51:00,
2013-10-22 22:56:00,36.7,35.7,30.01,NNE,32,0.0,0.0,96,0.00,,,0.39,VWS V14.01,2013-10-23 03:56:00,
2013-10-22 23:00:00,36.7,35.7,30.01,NNE,32,0.0,0.0,96,0.00,,OVC018,0.39,VWS V14.01,2013-10-23 04:00:00,
2013-10-22 23:01:00,36.7,35.7,30.01,NNE,33,0.0,0.0,96,0.00,,,0.39,VWS V14.01,2013-10-23 04:01:00,
2013-10-22 23:02:00,36.7,35.7,30.01,NNE,33,0.0,0.0,96,0.00,,,0.39,VWS V14.01,2013-10-23 04:02:00,
2013-10-22 23:04:00,36.6,35.6,30.01,NNE,33,0.0,0.0,96,0.00,,,0.39,VWS V14.01,2013-10-23 04:04:00,
2013-10-22 23:06:00,36.6,35.6,30.01,NNE,33,0.0,0.0,96,0.00,,,0.39,VWS V14.01,2013-10-23 04:06:00,
2013-10-22 23:10:00,36.6,35.6,30.01,NNE,33,0.0,0.0,96,0.00,,OVC018,0.39,VWS V14.01,2013-10-23 04:10:00,
2013-10-22 23:11:00,36.5,35.5,30.01,NNE,33,0.0,0.0,96,0.00,,,0.39,VWS V14.01,2013-10-23 04:11:00,
2013-10-22 23:16:00,36.6,35.6,30.02,NNE,32,0.0,0.0,96,0.00,,,0.39,VWS V14.01,2013-10-23 04:16:00,
2013-10-22 23:20:00,36.6,35.6,30.02,NNE,33,0.0,0.0,96,0.00,,OVC018,0.39,VWS V14.01,2013-10-23 04:20:00,
2013-10-22 23:21:00,36.6,35.6,30.02,NNE,33,0.0,0.0,96,0.00,,,0.39,VWS V14.01,2013-10-23 04:21:00,
2013-10-22 23:26:00,36.7,35.9,30.02,NNE,33,0.0,0.0,97,0.00,,,0.39,VWS V14.01,2013-10-23 04:26:00,
2013-10-22 23:30:00,36.7,35.9,30.01,NNE,32,0.0,0.0,97,0.00,,OVC018,0.39,VWS V14.01,2013-10-23 04:30:00,
2013-10-22 23:31:00,36.7,35.9,30.01,NNE,32,0.0,0.0,97,0.00,,,0.39,VWS V14.01,2013-10-23 04:31:00,
2013-10-22 23:36:00,36.7,35.7,30.01,NNE,33,0.0,0.0,96,0.00,,,0.39,VWS V14.01,2013-10-23 04:36:00,
2013-10-22 23:40:00,36.7,35.9,30.01,NNE,33,0.0,0.0,97,0.00,,OVC018,0.39,VWS V14.01,2013-10-23 04:40:00,
2013-10-22 23:42:00,36.7,35.9,30.01,NNE,32,0.0,0.0,97,0.00,,,0.39,VWS V14.01,2013-10-23 04:42:00,
2013-10-22 23:47:00,36.7,35.9,30.01,NNE,32,0.0,0.0,97,0.00,,,0.39,VWS V14.01,2013-10-23 04:47:00,
2013-10-22 23:50:00,36.7,35.9,30.01,NNE,32,0.0,0.0,97,0.00,,OVC018,0.39,VWS V14.01,2013-10-23 04:50:00,
2013-10-22 23:52:00,36.7,35.9,30.02,North,350,0.0,0.0,97,0.00,,,0.39,VWS V14.01,2013-10-23 04:52:00,
2013-10-22 23:57:00,36.8,36.0,30.02,North,349,0.0,0.0,97,0.00,,,0.39,VWS V14.01,2013-10-23 04:57:00,